sensor_id;sensor_type;location;lat;lon;timestamp;pressure;altitude;pressure_sealevel;temperature;humidity
22743;BME280;11538;48.884;8.696;2023-03-31T00:00:53;98127.13;;;11.42;95.43
22743;BME280;11538;48.884;8.696;2023-03-31T00:03:23;98117.25;;;11.37;96.49
22743;BME280;11538;48.884;8.696;2023-03-31T00:05:55;98121.72;;;11.33;95.22
22743;BME280;11538;48.884;8.696;2023-03-31T00:08:26;98115.97;;;11.35;95.41
22743;BME280;11538;48.884;8.696;2023-03-31T00:10:58;98114.38;;;11.43;94.46
22743;BME280;11538;48.884;8.696;2023-03-31T00:13:26;98115.63;;;11.45;94.67
22743;BME280;11538;48.884;8.696;2023-03-31T00:16:00;98104.94;;;11.40;95.88
22743;BME280;11538;48.884;8.696;2023-03-31T00:18:28;98100.00;;;11.33;94.46
22743;BME280;11538;48.884;8.696;2023-03-31T00:21:14;98093.94;;;11.36;94.79
22743;BME280;11538;48.884;8.696;2023-03-31T00:23:53;98090.88;;;11.38;95.36
22743;BME280;11538;48.884;8.696;2023-03-31T00:26:21;98093.75;;;11.33;95.70
22743;BME280;11538;48.884;8.696;2023-03-31T00:28:52;98086.72;;;11.32;96.47
22743;BME280;11538;48.884;8.696;2023-03-31T00:31:21;98080.34;;;11.27;97.13
22743;BME280;11538;48.884;8.696;2023-03-31T00:33:48;98073.03;;;11.28;97.34
22743;BME280;11538;48.884;8.696;2023-03-31T00:36:16;98077.16;;;11.25;97.96
22743;BME280;11538;48.884;8.696;2023-03-31T00:39:03;98078.28;;;11.24;98.06
22743;BME280;11538;48.884;8.696;2023-03-31T00:41:37;98065.00;;;11.23;97.66
22743;BME280;11538;48.884;8.696;2023-03-31T00:44:14;98067.72;;;11.23;97.51
22743;BME280;11538;48.884;8.696;2023-03-31T00:47:03;98066.63;;;11.15;98.01
22743;BME280;11538;48.884;8.696;2023-03-31T00:49:36;98057.06;;;11.09;98.66
22743;BME280;11538;48.884;8.696;2023-03-31T00:52:13;98050.34;;;11.15;97.59
22743;BME280;11538;48.884;8.696;2023-03-31T00:54:45;98043.63;;;11.21;96.52
22743;BME280;11538;48.884;8.696;2023-03-31T00:57:15;98048.41;;;11.24;95.19
22743;BME280;11538;48.884;8.696;2023-03-31T00:59:58;98054.50;;;11.30;94.16
22743;BME280;11538;48.884;8.696;2023-03-31T01:02:27;98046.19;;;11.35;93.23
22743;BME280;11538;48.884;8.696;2023-03-31T01:04:58;98035.94;;;11.41;93.88
22743;BME280;11538;48.884;8.696;2023-03-31T01:07:47;98037.84;;;11.40;96.17
22743;BME280;11538;48.884;8.696;2023-03-31T01:10:14;98039.94;;;11.35;97.53
22743;BME280;11538;48.884;8.696;2023-03-31T01:12:46;98021.56;;;11.32;100.00
22743;BME280;11538;48.884;8.696;2023-03-31T01:15:14;98017.75;;;11.33;100.00
22743;BME280;11538;48.884;8.696;2023-03-31T01:17:42;98021.28;;;11.24;100.00
22743;BME280;11538;48.884;8.696;2023-03-31T01:29:32;98013.91;;;11.25;100.00
22743;BME280;11538;48.884;8.696;2023-03-31T01:32:09;98011.19;;;11.25;100.00
22743;BME280;11538;48.884;8.696;2023-03-31T01:40:49;97996.31;;;11.40;100.00
22743;BME280;11538;48.884;8.696;2023-03-31T01:44:00;97996.50;;;11.26;100.00
22743;BME280;11538;48.884;8.696;2023-03-31T01:46:45;97994.66;;;11.09;100.00
22743;BME280;11538;48.884;8.696;2023-03-31T01:49:34;97993.53;;;11.10;100.00
22743;BME280;11538;48.884;8.696;2023-03-31T01:52:44;97976.44;;;11.09;100.00
22743;BME280;11538;48.884;8.696;2023-03-31T01:55:45;97981.50;;;11.20;100.00
22743;BME280;11538;48.884;8.696;2023-03-31T01:58:42;97980.38;;;11.30;100.00
22743;BME280;11538;48.884;8.696;2023-03-31T02:01:36;97976.84;;;11.38;100.00
22743;BME280;11538;48.884;8.696;2023-03-31T02:04:21;97974.59;;;11.40;100.00
22743;BME280;11538;48.884;8.696;2023-03-31T02:06:59;97969.16;;;11.40;100.00
22743;BME280;11538;48.884;8.696;2023-03-31T02:09:35;97956.88;;;11.43;100.00
22743;BME280;11538;48.884;8.696;2023-03-31T02:12:09;97950.97;;;11.40;100.00
22743;BME280;11538;48.884;8.696;2023-03-31T02:14:41;97956.91;;;11.34;100.00
22743;BME280;11538;48.884;8.696;2023-03-31T02:17:18;97936.94;;;11.30;100.00
22743;BME280;11538;48.884;8.696;2023-03-31T02:19:51;97937.56;;;11.35;100.00
22743;BME280;11538;48.884;8.696;2023-03-31T02:22:21;97935.00;;;11.39;100.00
22743;BME280;11538;48.884;8.696;2023-03-31T02:24:52;97922.41;;;11.34;100.00
22743;BME280;11538;48.884;8.696;2023-03-31T02:27:29;97909.63;;;11.35;100.00
22743;BME280;11538;48.884;8.696;2023-03-31T02:29:58;97905.84;;;11.27;100.00
22743;BME280;11538;48.884;8.696;2023-03-31T02:32:40;97887.47;;;11.24;100.00
22743;BME280;11538;48.884;8.696;2023-03-31T02:35:16;97875.53;;;11.16;100.00
22743;BME280;11538;48.884;8.696;2023-03-31T02:37:45;97869.28;;;11.16;100.00
22743;BME280;11538;48.884;8.696;2023-03-31T02:40:19;97850.16;;;11.12;100.00
22743;BME280;11538;48.884;8.696;2023-03-31T02:42:48;97847.47;;;11.03;100.00
22743;BME280;11538;48.884;8.696;2023-03-31T02:48:23;97826.94;;;10.93;100.00
22743;BME280;11538;48.884;8.696;2023-03-31T02:57:25;97816.75;;;10.90;100.00
22743;BME280;11538;48.884;8.696;2023-03-31T03:09:14;97772.75;;;10.76;100.00
22743;BME280;11538;48.884;8.696;2023-03-31T03:15:09;97756.38;;;10.63;100.00
22743;BME280;11538;48.884;8.696;2023-03-31T03:17:44;97739.03;;;10.56;100.00
22743;BME280;11538;48.884;8.696;2023-03-31T03:20:13;97731.34;;;10.58;100.00
22743;BME280;11538;48.884;8.696;2023-03-31T03:22:42;97730.06;;;10.55;100.00
22743;BME280;11538;48.884;8.696;2023-03-31T03:25:13;97726.59;;;10.55;100.00
22743;BME280;11538;48.884;8.696;2023-03-31T03:27:43;97721.81;;;10.51;100.00
22743;BME280;11538;48.884;8.696;2023-03-31T03:30:12;97715.44;;;10.47;100.00
22743;BME280;11538;48.884;8.696;2023-03-31T03:32:39;97722.47;;;10.48;100.00
22743;BME280;11538;48.884;8.696;2023-03-31T03:35:08;97706.66;;;10.50;100.00
22743;BME280;11538;48.884;8.696;2023-03-31T03:37:35;97692.47;;;10.53;100.00
22743;BME280;11538;48.884;8.696;2023-03-31T03:40:04;97697.06;;;10.53;100.00
22743;BME280;11538;48.884;8.696;2023-03-31T03:42:34;97687.69;;;10.50;100.00
22743;BME280;11538;48.884;8.696;2023-03-31T03:45:01;97663.47;;;10.45;100.00
22743;BME280;11538;48.884;8.696;2023-03-31T03:47:28;97656.47;;;10.44;100.00
22743;BME280;11538;48.884;8.696;2023-03-31T03:49:55;97639.72;;;10.42;100.00
22743;BME280;11538;48.884;8.696;2023-03-31T03:52:22;97644.34;;;10.42;100.00
22743;BME280;11538;48.884;8.696;2023-03-31T03:54:49;97637.03;;;10.42;100.00
22743;BME280;11538;48.884;8.696;2023-03-31T03:57:16;97635.44;;;10.41;100.00
22743;BME280;11538;48.884;8.696;2023-03-31T03:59:43;97628.06;;;10.42;100.00
22743;BME280;11538;48.884;8.696;2023-03-31T04:02:10;97623.94;;;10.44;100.00
22743;BME280;11538;48.884;8.696;2023-03-31T04:04:37;97630.13;;;10.45;100.00
22743;BME280;11538;48.884;8.696;2023-03-31T04:07:04;97650.22;;;10.44;100.00
22743;BME280;11538;48.884;8.696;2023-03-31T04:09:31;97653.88;;;10.48;100.00
22743;BME280;11538;48.884;8.696;2023-03-31T04:11:58;97647.81;;;10.51;100.00
22743;BME280;11538;48.884;8.696;2023-03-31T04:14:25;97658.00;;;10.54;100.00
22743;BME280;11538;48.884;8.696;2023-03-31T04:16:52;97650.63;;;10.63;100.00
22743;BME280;11538;48.884;8.696;2023-03-31T04:19:22;97651.56;;;10.67;100.00
22743;BME280;11538;48.884;8.696;2023-03-31T04:21:52;97638.78;;;10.68;100.00
22743;BME280;11538;48.884;8.696;2023-03-31T04:24:25;97632.78;;;10.62;100.00
22743;BME280;11538;48.884;8.696;2023-03-31T04:26:59;97631.47;;;10.68;100.00
22743;BME280;11538;48.884;8.696;2023-03-31T04:29:27;97613.59;;;10.67;100.00
22743;BME280;11538;48.884;8.696;2023-03-31T04:31:55;97620.47;;;10.65;100.00
22743;BME280;11538;48.884;8.696;2023-03-31T04:34:26;97618.09;;;10.63;100.00
22743;BME280;11538;48.884;8.696;2023-03-31T04:37:02;97602.47;;;10.60;100.00
22743;BME280;11538;48.884;8.696;2023-03-31T04:39:30;97621.13;;;10.62;100.00
22743;BME280;11538;48.884;8.696;2023-03-31T04:41:58;97617.13;;;10.59;100.00
22743;BME280;11538;48.884;8.696;2023-03-31T04:44:26;97615.53;;;10.58;100.00
22743;BME280;11538;48.884;8.696;2023-03-31T04:46:54;97598.81;;;10.56;100.00
22743;BME280;11538;48.884;8.696;2023-03-31T04:49:21;97598.34;;;10.54;100.00
22743;BME280;11538;48.884;8.696;2023-03-31T04:51:48;97596.34;;;10.42;100.00
22743;BME280;11538;48.884;8.696;2023-03-31T04:54:15;97600.97;;;10.42;100.00
22743;BME280;11538;48.884;8.696;2023-03-31T04:56:45;97604.03;;;10.40;100.00
22743;BME280;11538;48.884;8.696;2023-03-31T04:59:12;97615.66;;;10.41;100.00
22743;BME280;11538;48.884;8.696;2023-03-31T05:01:39;97623.13;;;10.44;100.00
22743;BME280;11538;48.884;8.696;2023-03-31T05:04:11;97623.41;;;10.51;100.00
22743;BME280;11538;48.884;8.696;2023-03-31T05:06:38;97633.78;;;10.49;100.00
22743;BME280;11538;48.884;8.696;2023-03-31T05:09:05;97635.09;;;10.43;100.00
22743;BME280;11538;48.884;8.696;2023-03-31T05:11:32;97647.22;;;10.45;100.00
22743;BME280;11538;48.884;8.696;2023-03-31T05:13:59;97650.69;;;10.46;100.00
22743;BME280;11538;48.884;8.696;2023-03-31T05:16:26;97648.16;;;10.41;100.00
22743;BME280;11538;48.884;8.696;2023-03-31T05:18:53;97634.13;;;10.38;100.00
22743;BME280;11538;48.884;8.696;2023-03-31T05:21:21;97618.34;;;10.41;100.00
22743;BME280;11538;48.884;8.696;2023-03-31T05:23:48;97613.09;;;10.35;100.00
22743;BME280;11538;48.884;8.696;2023-03-31T05:26:15;97594.47;;;10.34;100.00
22743;BME280;11538;48.884;8.696;2023-03-31T05:28:42;97585.53;;;10.33;100.00
22743;BME280;11538;48.884;8.696;2023-03-31T05:31:10;97579.31;;;10.33;100.00
22743;BME280;11538;48.884;8.696;2023-03-31T05:33:39;97564.97;;;10.32;100.00
22743;BME280;11538;48.884;8.696;2023-03-31T05:36:14;97573.44;;;10.31;100.00
22743;BME280;11538;48.884;8.696;2023-03-31T05:38:42;97571.69;;;10.26;100.00
22743;BME280;11538;48.884;8.696;2023-03-31T05:41:10;97561.69;;;10.18;100.00
22743;BME280;11538;48.884;8.696;2023-03-31T05:43:37;97555.22;;;10.10;100.00
22743;BME280;11538;48.884;8.696;2023-03-31T05:46:05;97547.75;;;10.07;100.00
22743;BME280;11538;48.884;8.696;2023-03-31T05:48:33;97539.28;;;10.08;100.00
22743;BME280;11538;48.884;8.696;2023-03-31T05:51:00;97538.63;;;10.12;100.00
22743;BME280;11538;48.884;8.696;2023-03-31T05:53:28;97526.47;;;10.18;100.00
22743;BME280;11538;48.884;8.696;2023-03-31T05:56:01;97518.97;;;10.23;100.00
22743;BME280;11538;48.884;8.696;2023-03-31T05:58:29;97508.25;;;10.27;100.00
22743;BME280;11538;48.884;8.696;2023-03-31T06:01:06;97505.88;;;10.26;100.00
22743;BME280;11538;48.884;8.696;2023-03-31T06:03:36;97503.63;;;10.28;100.00
22743;BME280;11538;48.884;8.696;2023-03-31T06:06:04;97492.91;;;10.31;100.00
22743;BME280;11538;48.884;8.696;2023-03-31T06:08:32;97509.16;;;10.40;100.00
22743;BME280;11538;48.884;8.696;2023-03-31T06:10:59;97511.31;;;10.47;100.00
22743;BME280;11538;48.884;8.696;2023-03-31T06:13:26;97512.78;;;10.44;100.00
22743;BME280;11538;48.884;8.696;2023-03-31T06:15:59;97508.81;;;10.42;100.00
22743;BME280;11538;48.884;8.696;2023-03-31T06:18:29;97514.09;;;10.38;100.00
22743;BME280;11538;48.884;8.696;2023-03-31T06:20:56;97517.78;;;10.33;100.00
22743;BME280;11538;48.884;8.696;2023-03-31T06:23:24;97498.53;;;10.26;100.00
22743;BME280;11538;48.884;8.696;2023-03-31T06:25:52;97504.59;;;10.23;100.00
22743;BME280;11538;48.884;8.696;2023-03-31T06:28:20;97509.75;;;10.16;100.00
22743;BME280;11538;48.884;8.696;2023-03-31T06:30:47;97506.38;;;10.19;100.00
22743;BME280;11538;48.884;8.696;2023-03-31T06:33:14;97533.16;;;10.20;100.00
22743;BME280;11538;48.884;8.696;2023-03-31T06:35:42;97527.22;;;10.27;100.00
22743;BME280;11538;48.884;8.696;2023-03-31T06:38:09;97531.66;;;10.32;100.00
22743;BME280;11538;48.884;8.696;2023-03-31T06:40:36;97540.44;;;10.29;100.00
22743;BME280;11538;48.884;8.696;2023-03-31T06:43:03;97519.56;;;10.29;100.00
22743;BME280;11538;48.884;8.696;2023-03-31T06:45:30;97527.16;;;10.36;100.00
22743;BME280;11538;48.884;8.696;2023-03-31T06:47:56;97526.00;;;10.46;100.00
22743;BME280;11538;48.884;8.696;2023-03-31T06:50:23;97522.91;;;10.56;100.00
22743;BME280;11538;48.884;8.696;2023-03-31T06:52:50;97538.66;;;10.63;100.00
22743;BME280;11538;48.884;8.696;2023-03-31T06:55:20;97532.25;;;10.67;100.00
22743;BME280;11538;48.884;8.696;2023-03-31T06:57:47;97506.16;;;10.75;100.00
22743;BME280;11538;48.884;8.696;2023-03-31T07:00:15;97462.56;;;10.80;100.00
22743;BME280;11538;48.884;8.696;2023-03-31T07:02:41;97419.78;;;10.86;100.00
22743;BME280;11538;48.884;8.696;2023-03-31T07:05:08;97390.94;;;10.94;100.00
22743;BME280;11538;48.884;8.696;2023-03-31T07:07:37;97411.66;;;10.99;100.00
22743;BME280;11538;48.884;8.696;2023-03-31T07:10:05;97421.94;;;11.05;100.00
22743;BME280;11538;48.884;8.696;2023-03-31T07:12:32;97451.56;;;11.10;100.00
22743;BME280;11538;48.884;8.696;2023-03-31T07:14:59;97428.50;;;11.17;100.00
22743;BME280;11538;48.884;8.696;2023-03-31T07:17:26;97431.81;;;11.22;100.00
22743;BME280;11538;48.884;8.696;2023-03-31T07:19:53;97431.81;;;11.22;100.00
22743;BME280;11538;48.884;8.696;2023-03-31T07:22:20;97441.09;;;11.21;100.00
22743;BME280;11538;48.884;8.696;2023-03-31T07:24:46;97438.97;;;11.27;100.00
22743;BME280;11538;48.884;8.696;2023-03-31T07:27:13;97439.97;;;11.35;100.00
22743;BME280;11538;48.884;8.696;2023-03-31T07:29:40;97433.88;;;11.38;100.00
22743;BME280;11538;48.884;8.696;2023-03-31T07:32:07;97439.75;;;11.40;100.00
22743;BME280;11538;48.884;8.696;2023-03-31T07:34:34;97438.19;;;11.51;100.00
22743;BME280;11538;48.884;8.696;2023-03-31T07:37:03;97443.06;;;11.58;100.00
22743;BME280;11538;48.884;8.696;2023-03-31T07:39:30;97444.06;;;11.66;100.00
22743;BME280;11538;48.884;8.696;2023-03-31T07:41:57;97446.31;;;11.76;100.00
22743;BME280;11538;48.884;8.696;2023-03-31T07:44:24;97441.81;;;11.93;100.00
22743;BME280;11538;48.884;8.696;2023-03-31T07:46:51;97449.38;;;12.12;100.00
22743;BME280;11538;48.884;8.696;2023-03-31T07:49:18;97456.81;;;12.27;100.00
22743;BME280;11538;48.884;8.696;2023-03-31T07:51:45;97440.63;;;12.31;100.00
22743;BME280;11538;48.884;8.696;2023-03-31T07:54:12;97441.06;;;12.33;100.00
22743;BME280;11538;48.884;8.696;2023-03-31T07:56:39;97442.16;;;12.45;100.00
22743;BME280;11538;48.884;8.696;2023-03-31T07:59:05;97443.81;;;12.62;100.00
22743;BME280;11538;48.884;8.696;2023-03-31T08:01:32;97432.25;;;12.65;100.00
22743;BME280;11538;48.884;8.696;2023-03-31T08:04:00;97430.34;;;12.81;100.00
22743;BME280;11538;48.884;8.696;2023-03-31T08:06:27;97435.28;;;12.92;97.32
22743;BME280;11538;48.884;8.696;2023-03-31T08:08:56;97438.91;;;13.12;98.13
22743;BME280;11538;48.884;8.696;2023-03-31T08:11:24;97437.31;;;13.11;96.08
22743;BME280;11538;48.884;8.696;2023-03-31T08:13:51;97426.19;;;13.32;95.05
22743;BME280;11538;48.884;8.696;2023-03-31T08:16:18;97430.53;;;13.49;92.08
22743;BME280;11538;48.884;8.696;2023-03-31T08:18:45;97436.22;;;13.76;88.50
22743;BME280;11538;48.884;8.696;2023-03-31T08:21:12;97433.00;;;13.90;88.08
22743;BME280;11538;48.884;8.696;2023-03-31T08:23:39;97433.41;;;14.08;86.96
22743;BME280;11538;48.884;8.696;2023-03-31T08:26:10;97415.78;;;14.22;85.31
22743;BME280;11538;48.884;8.696;2023-03-31T08:28:37;97426.56;;;14.34;83.74
22743;BME280;11538;48.884;8.696;2023-03-31T08:31:08;97452.81;;;14.42;82.33
22743;BME280;11538;48.884;8.696;2023-03-31T08:33:36;97443.91;;;14.45;85.03
22743;BME280;11538;48.884;8.696;2023-03-31T08:36:06;97429.28;;;14.54;80.93
22743;BME280;11538;48.884;8.696;2023-03-31T08:38:37;97435.34;;;14.63;80.89
22743;BME280;11538;48.884;8.696;2023-03-31T08:41:09;97435.25;;;14.79;80.19
22743;BME280;11538;48.884;8.696;2023-03-31T08:43:44;97439.84;;;14.55;78.98
22743;BME280;11538;48.884;8.696;2023-03-31T08:46:16;97439.56;;;14.41;80.15
22743;BME280;11538;48.884;8.696;2023-03-31T08:48:49;97426.31;;;14.79;80.38
22743;BME280;11538;48.884;8.696;2023-03-31T08:51:28;97457.72;;;15.12;75.97
22743;BME280;11538;48.884;8.696;2023-03-31T08:54:30;97439.97;;;15.02;74.65
22743;BME280;11538;48.884;8.696;2023-03-31T08:56:57;97427.06;;;15.22;74.93
22743;BME280;11538;48.884;8.696;2023-03-31T08:59:33;97456.63;;;15.40;74.04
22743;BME280;11538;48.884;8.696;2023-03-31T09:02:21;97449.66;;;15.42;73.80
22743;BME280;11538;48.884;8.696;2023-03-31T09:08:36;97443.50;;;15.72;69.95
22743;BME280;11538;48.884;8.696;2023-03-31T09:11:32;97443.63;;;15.56;70.77
22743;BME280;11538;48.884;8.696;2023-03-31T09:14:31;97439.13;;;15.68;71.08
22743;BME280;11538;48.884;8.696;2023-03-31T09:17:17;97433.91;;;16.09;70.53
22743;BME280;11538;48.884;8.696;2023-03-31T09:20:16;97426.53;;;16.44;68.48
22743;BME280;11538;48.884;8.696;2023-03-31T09:22:56;97424.47;;;16.67;64.56
22743;BME280;11538;48.884;8.696;2023-03-31T09:25:35;97423.16;;;16.23;64.80
22743;BME280;11538;48.884;8.696;2023-03-31T09:28:21;97432.56;;;15.72;64.63
22743;BME280;11538;48.884;8.696;2023-03-31T09:30:49;97413.22;;;15.34;66.12
22743;BME280;11538;48.884;8.696;2023-03-31T09:33:29;97432.78;;;15.37;65.49
22743;BME280;11538;48.884;8.696;2023-03-31T09:36:01;97417.22;;;15.41;65.87
22743;BME280;11538;48.884;8.696;2023-03-31T09:38:29;97391.13;;;15.43;68.39
22743;BME280;11538;48.884;8.696;2023-03-31T09:41:01;97397.44;;;15.24;66.57
22743;BME280;11538;48.884;8.696;2023-03-31T09:43:32;97400.47;;;15.19;67.09
22743;BME280;11538;48.884;8.696;2023-03-31T09:46:02;97398.56;;;15.97;66.21
22743;BME280;11538;48.884;8.696;2023-03-31T09:48:41;97404.34;;;16.52;63.12
22743;BME280;11538;48.884;8.696;2023-03-31T09:51:21;97403.09;;;16.16;64.09
22743;BME280;11538;48.884;8.696;2023-03-31T09:54:27;97405.97;;;15.69;66.51
22743;BME280;11538;48.884;8.696;2023-03-31T09:57:00;97413.41;;;15.22;70.24
22743;BME280;11538;48.884;8.696;2023-03-31T09:59:33;97420.38;;;14.96;76.61
22743;BME280;11538;48.884;8.696;2023-03-31T10:02:19;97409.06;;;14.74;79.51
22743;BME280;11538;48.884;8.696;2023-03-31T10:04:48;97430.94;;;14.39;87.77
22743;BME280;11538;48.884;8.696;2023-03-31T10:07:22;97434.00;;;13.82;91.57
22743;BME280;11538;48.884;8.696;2023-03-31T10:09:50;97423.63;;;13.07;91.30
22743;BME280;11538;48.884;8.696;2023-03-31T10:12:27;97398.09;;;12.67;92.68
22743;BME280;11538;48.884;8.696;2023-03-31T10:15:17;97388.41;;;12.54;92.44
22743;BME280;11538;48.884;8.696;2023-03-31T10:17:46;97382.25;;;12.85;93.26
22743;BME280;11538;48.884;8.696;2023-03-31T10:20:38;97370.22;;;13.02;91.90
22743;BME280;11538;48.884;8.696;2023-03-31T10:23:45;97361.72;;;13.52;93.54
22743;BME280;11538;48.884;8.696;2023-03-31T10:26:20;97358.94;;;14.24;92.85
22743;BME280;11538;48.884;8.696;2023-03-31T10:28:50;97350.13;;;14.93;90.34
22743;BME280;11538;48.884;8.696;2023-03-31T10:31:25;97334.38;;;15.33;89.05
22743;BME280;11538;48.884;8.696;2023-03-31T10:33:53;97327.91;;;15.18;88.63
22743;BME280;11538;48.884;8.696;2023-03-31T10:36:28;97329.06;;;15.17;90.69
22743;BME280;11538;48.884;8.696;2023-03-31T10:38:56;97312.25;;;15.42;90.69
22743;BME280;11538;48.884;8.696;2023-03-31T10:41:28;97323.78;;;15.55;90.44
22743;BME280;11538;48.884;8.696;2023-03-31T10:43:58;97320.75;;;15.63;85.85
22743;BME280;11538;48.884;8.696;2023-03-31T10:46:52;97332.81;;;15.32;84.88
22743;BME280;11538;48.884;8.696;2023-03-31T10:49:26;97341.94;;;14.93;83.67
22743;BME280;11538;48.884;8.696;2023-03-31T10:51:58;97370.56;;;14.80;86.17
22743;BME280;11538;48.884;8.696;2023-03-31T10:54:26;97376.66;;;14.53;88.85
22743;BME280;11538;48.884;8.696;2023-03-31T10:56:58;97419.06;;;14.11;84.01
22743;BME280;11538;48.884;8.696;2023-03-31T11:03:02;97498.38;;;12.81;93.49
22743;BME280;11538;48.884;8.696;2023-03-31T11:11:57;97472.69;;;11.63;100.00
22743;BME280;11538;48.884;8.696;2023-03-31T11:14:39;97467.38;;;11.54;100.00
22743;BME280;11538;48.884;8.696;2023-03-31T11:17:24;97470.19;;;11.33;100.00
22743;BME280;11538;48.884;8.696;2023-03-31T11:20:22;97447.88;;;11.15;100.00
22743;BME280;11538;48.884;8.696;2023-03-31T11:23:13;97441.09;;;11.34;100.00
22743;BME280;11538;48.884;8.696;2023-03-31T11:25:57;97430.25;;;11.59;100.00
22743;BME280;11538;48.884;8.696;2023-03-31T11:41:08;97379.19;;;15.28;78.52
22743;BME280;11538;48.884;8.696;2023-03-31T11:48:59;97364.06;;;16.87;69.39
22743;BME280;11538;48.884;8.696;2023-03-31T11:55:14;97360.50;;;17.88;62.85
22743;BME280;11538;48.884;8.696;2023-03-31T11:58:05;97345.50;;;17.67;63.09
22743;BME280;11538;48.884;8.696;2023-03-31T12:00:42;97372.63;;;18.61;60.18
22743;BME280;11538;48.884;8.696;2023-03-31T12:05:58;97349.88;;;19.80;58.00
22743;BME280;11538;48.884;8.696;2023-03-31T12:08:35;97357.72;;;19.85;53.42
22743;BME280;11538;48.884;8.696;2023-03-31T12:11:21;97347.53;;;19.96;52.37
22743;BME280;11538;48.884;8.696;2023-03-31T12:14:09;97338.75;;;20.27;49.95
22743;BME280;11538;48.884;8.696;2023-03-31T12:16:45;97343.09;;;20.21;48.26
22743;BME280;11538;48.884;8.696;2023-03-31T12:19:27;97346.72;;;19.88;50.92
22743;BME280;11538;48.884;8.696;2023-03-31T12:22:27;97345.22;;;19.55;48.87
22743;BME280;11538;48.884;8.696;2023-03-31T12:24:55;97338.13;;;18.85;49.49
22743;BME280;11538;48.884;8.696;2023-03-31T12:27:33;97353.72;;;17.63;53.23
22743;BME280;11538;48.884;8.696;2023-03-31T12:33:03;97331.00;;;18.48;51.95
22743;BME280;11538;48.884;8.696;2023-03-31T12:42:03;97322.41;;;18.56;49.10
22743;BME280;11538;48.884;8.696;2023-03-31T12:45:23;97339.22;;;17.10;52.13
22743;BME280;11538;48.884;8.696;2023-03-31T12:48:29;97358.16;;;15.86;58.47
22743;BME280;11538;48.884;8.696;2023-03-31T12:54:26;97380.75;;;14.04;78.32
22743;BME280;11538;48.884;8.696;2023-03-31T12:57:12;97341.59;;;13.25;83.69
22743;BME280;11538;48.884;8.696;2023-03-31T12:59:44;97343.09;;;12.90;87.41
22743;BME280;11538;48.884;8.696;2023-03-31T13:04:43;97303.50;;;12.77;80.67
22743;BME280;11538;48.884;8.696;2023-03-31T13:07:38;97282.69;;;12.36;82.75
22743;BME280;11538;48.884;8.696;2023-03-31T13:12:40;97289.38;;;13.03;78.01
22743;BME280;11538;48.884;8.696;2023-03-31T13:15:13;97280.88;;;14.15;72.34
22743;BME280;11538;48.884;8.696;2023-03-31T13:17:57;97278.34;;;16.04;66.64
22743;BME280;11538;48.884;8.696;2023-03-31T13:25:52;97280.91;;;17.69;56.17
22743;BME280;11538;48.884;8.696;2023-03-31T13:28:42;97282.41;;;17.00;57.68
22743;BME280;11538;48.884;8.696;2023-03-31T13:31:12;97283.16;;;15.84;60.84
22743;BME280;11538;48.884;8.696;2023-03-31T13:33:52;97270.22;;;14.73;63.83
22743;BME280;11538;48.884;8.696;2023-03-31T13:39:26;97277.38;;;14.15;68.92
22743;BME280;11538;48.884;8.696;2023-03-31T13:42:26;97276.50;;;14.30;66.79
22743;BME280;11538;48.884;8.696;2023-03-31T13:45:51;97264.13;;;14.37;64.08
22743;BME280;11538;48.884;8.696;2023-03-31T13:48:47;97251.44;;;15.18;62.26
22743;BME280;11538;48.884;8.696;2023-03-31T13:51:44;97250.59;;;15.71;59.29
22743;BME280;11538;48.884;8.696;2023-03-31T14:06:48;97243.97;;;19.06;49.59
22743;BME280;11538;48.884;8.696;2023-03-31T14:09:32;97236.03;;;19.48;46.78
22743;BME280;11538;48.884;8.696;2023-03-31T14:12:36;97240.44;;;18.66;48.88
22743;BME280;11538;48.884;8.696;2023-03-31T14:15:05;97244.13;;;17.85;50.70
22743;BME280;11538;48.884;8.696;2023-03-31T14:17:42;97233.34;;;17.40;50.58
22743;BME280;11538;48.884;8.696;2023-03-31T14:20:31;97228.84;;;17.80;50.75
22743;BME280;11538;48.884;8.696;2023-03-31T14:23:32;97226.50;;;17.82;49.84
22743;BME280;11538;48.884;8.696;2023-03-31T14:35:25;97240.00;;;18.49;49.07
22743;BME280;11538;48.884;8.696;2023-03-31T14:37:55;97231.72;;;18.20;46.98
22743;BME280;11538;48.884;8.696;2023-03-31T14:40:24;97228.63;;;18.47;46.17
22743;BME280;11538;48.884;8.696;2023-03-31T14:42:51;97228.31;;;17.49;48.85
22743;BME280;11538;48.884;8.696;2023-03-31T14:45:24;97217.50;;;17.82;48.82
22743;BME280;11538;48.884;8.696;2023-03-31T14:48:12;97219.59;;;18.43;46.74
22743;BME280;11538;48.884;8.696;2023-03-31T14:50:45;97203.13;;;18.36;46.13
22743;BME280;11538;48.884;8.696;2023-03-31T14:53:23;97200.69;;;17.98;46.62
22743;BME280;11538;48.884;8.696;2023-03-31T14:56:03;97205.75;;;17.07;48.62
22743;BME280;11538;48.884;8.696;2023-03-31T14:58:46;97195.75;;;16.74;50.13
22743;BME280;11538;48.884;8.696;2023-03-31T15:01:22;97202.19;;;16.47;50.49
22743;BME280;11538;48.884;8.696;2023-03-31T15:03:53;97197.94;;;16.12;51.71
22743;BME280;11538;48.884;8.696;2023-03-31T15:06:24;97202.31;;;15.86;52.08
22743;BME280;11538;48.884;8.696;2023-03-31T15:08:56;97191.56;;;15.67;53.18
22743;BME280;11538;48.884;8.696;2023-03-31T15:11:24;97196.53;;;15.88;53.66
22743;BME280;11538;48.884;8.696;2023-03-31T15:13:54;97207.78;;;15.86;53.76
22743;BME280;11538;48.884;8.696;2023-03-31T15:16:40;97200.47;;;15.90;53.49
22743;BME280;11538;48.884;8.696;2023-03-31T15:19:26;97199.44;;;15.72;53.98
22743;BME280;11538;48.884;8.696;2023-03-31T15:21:57;97215.38;;;15.66;53.87
22743;BME280;11538;48.884;8.696;2023-03-31T15:24:28;97211.09;;;15.69;53.78
22743;BME280;11538;48.884;8.696;2023-03-31T15:29:37;97204.78;;;15.61;53.76
22743;BME280;11538;48.884;8.696;2023-03-31T15:32:20;97211.34;;;15.56;53.72
22743;BME280;11538;48.884;8.696;2023-03-31T15:34:50;97209.88;;;15.32;54.80
22743;BME280;11538;48.884;8.696;2023-03-31T15:37:32;97214.78;;;15.19;55.59